Time;durP1;ratioP1;P1;durP2;ratioP2;P2;SDS_P1;SDS_P2;PMS_P1;PMS_P2;Temp;Humidity;BMP_temperature;BMP_pressure;BME280_temperature;BME280_humidity;BME280_pressure;Samples;Min_cycle;Max_cycle;Signal;HPM_P1;HPM_P2
2022/01/31 00:00:20;;;;;;;12.98;5.60;;;;;;;0.22;100.00;94789.16;5051239;28;20067;-49
2022/01/31 00:02:47;;;;;;;16.27;5.95;;;;;;;0.27;100.00;94801.47;5046608;28;20049;-49
2022/01/31 00:05:16;;;;;;;20.40;7.32;;;;;;;0.24;100.00;94806.94;5046651;28;20060;-48
2022/01/31 00:07:43;;;;;;;14.65;6.97;;;;;;;0.24;100.00;94806.94;5050390;28;20099;-47
2022/01/31 00:10:12;;;;;;;11.32;5.05;;;;;;;0.21;100.00;94812.38;5052281;28;20048;-47
2022/01/31 00:12:53;;;;;;;14.02;4.85;;;;;;;0.12;100.00;94817.53;5048082;28;20041;-48
2022/01/31 00:15:20;;;;;;;17.55;5.55;;;;;;;0.06;100.00;94814.84;5048157;28;20048;-48
2022/01/31 00:17:47;;;;;;;12.57;6.30;;;;;;;-0.01;100.00;94814.72;5045813;28;20716;-49
2022/01/31 00:20:14;;;;;;;19.08;5.50;;;;;;;-0.01;100.00;94814.72;5046662;28;20083;-48
2022/01/31 00:22:41;;;;;;;10.07;4.28;;;;;;;-0.02;100.00;94828.47;5055756;28;20095;-47
2022/01/31 00:25:08;;;;;;;10.05;4.70;;;;;;;-0.06;100.00;94830.56;5050636;28;20052;-46
2022/01/31 00:27:35;;;;;;;6.50;4.10;;;;;;;-0.11;100.00;94819.22;5047444;28;20051;-47
2022/01/31 00:30:04;;;;;;;18.02;5.60;;;;;;;-0.02;100.00;94838.72;5050351;28;20037;-48
2022/01/31 00:32:31;;;;;;;13.27;4.78;;;;;;;0.03;100.00;94833.09;5060052;28;20051;-46
2022/01/31 00:34:59;;;;;;;14.60;4.30;;;;;;;0.04;100.00;94837.25;5051303;28;20410;-48
2022/01/31 00:37:26;;;;;;;6.93;3.97;;;;;;;0.08;100.00;94834.19;5051654;28;20084;-48
2022/01/31 00:39:52;;;;;;;28.30;3.42;;;;;;;0.18;100.00;94834.81;5048261;28;20459;-51
2022/01/31 00:42:22;;;;;;;9.70;3.33;;;;;;;0.27;100.00;94839.88;5046657;28;20430;-46
2022/01/31 00:45:07;;;;;;;6.80;2.45;;;;;;;0.29;100.00;94840.50;5045653;28;20036;-48
2022/01/31 00:47:34;;;;;;;19.67;3.55;;;;;;;0.39;100.00;94848.81;5046881;28;20048;-48
2022/01/31 00:50:09;;;;;;;6.78;3.03;;;;;;;0.42;100.00;94840.78;5046943;28;20392;-47
2022/01/31 00:52:37;;;;;;;6.18;3.55;;;;;;;0.44;100.00;94838.84;5045803;28;20143;-48
2022/01/31 00:55:07;;;;;;;13.65;3.92;;;;;;;0.47;99.63;94838.53;5046411;28;20041;-47
2022/01/31 00:57:35;;;;;;;11.40;5.38;;;;;;;0.49;99.91;94831.47;5052589;28;20408;-47
2022/01/31 01:00:04;;;;;;;14.48;2.80;;;;;;;0.49;99.48;94841.72;5047767;28;20522;-48
2022/01/31 01:02:32;;;;;;;6.70;2.80;;;;;;;0.43;99.64;94839.81;5060870;28;20181;-50
2022/01/31 01:05:00;;;;;;;5.72;2.55;;;;;;;0.34;99.36;94823.69;5049639;28;20052;-46
2022/01/31 01:07:27;;;;;;;12.68;3.38;;;;;;;0.39;99.49;94841.13;5062491;28;20579;-51
2022/01/31 01:09:55;;;;;;;10.80;3.20;;;;;;;0.42;99.42;94845.91;5050600;28;20037;-46
2022/01/31 01:12:22;;;;;;;7.20;2.45;;;;;;;0.25;99.53;94829.00;5061659;28;20045;-47
2022/01/31 01:14:49;;;;;;;8.43;2.88;;;;;;;0.34;99.15;94838.25;5052992;28;20445;-47
2022/01/31 01:17:17;;;;;;;6.20;3.22;;;;;;;0.36;98.87;94836.31;5047527;28;20048;-48
2022/01/31 01:19:44;;;;;;;4.72;2.38;;;;;;;0.37;98.09;94828.47;5046281;28;20045;-51
2022/01/31 01:22:11;;;;;;;5.68;2.70;;;;;;;0.40;98.44;94827.34;5044904;28;20048;-48
2022/01/31 01:24:38;;;;;;;3.45;2.28;;;;;;;0.44;97.97;94823.47;5046285;28;20119;-51
2022/01/31 01:27:08;;;;;;;17.52;3.45;;;;;;;0.41;97.79;94823.81;5045904;28;20049;-48
2022/01/31 01:29:36;;;;;;;16.00;4.43;;;;;;;0.47;97.90;94838.53;5046150;28;20055;-48
2022/01/31 01:32:03;;;;;;;4.22;2.10;;;;;;;0.50;97.74;94827.13;5051445;28;20123;-47
2022/01/31 01:34:34;;;;;;;28.08;2.80;;;;;;;0.49;97.68;94826.34;5045902;28;20071;-48
2022/01/31 01:37:01;;;;;;;4.60;2.72;;;;;;;0.45;97.57;94812.28;5048049;28;20139;-47
2022/01/31 01:39:29;;;;;;;12.15;3.08;;;;;;;0.40;97.61;94811.97;5045263;28;20079;-49
2022/01/31 01:41:57;;;;;;;6.80;3.33;;;;;;;0.52;97.97;94820.06;5059918;28;22041;-48
2022/01/31 01:44:44;;;;;;;8.27;4.25;;;;;;;0.59;98.18;94820.19;5056191;28;20052;-48
2022/01/31 01:47:18;;;;;;;6.47;2.67;;;;;;;0.47;98.76;94823.16;5046570;28;20122;-47
2022/01/31 01:49:47;;;;;;;5.93;3.10;;;;;;;0.42;98.67;94815.16;5047549;28;20040;-46
2022/01/31 01:52:17;;;;;;;13.05;3.42;;;;;;;0.45;98.80;94814.84;5045923;28;20040;-47
2022/01/31 01:54:48;;;;;;;15.00;5.13;;;;;;;0.46;97.71;94811.28;5052261;28;20498;-46
2022/01/31 01:57:18;;;;;;;6.13;3.63;;;;;;;0.50;97.43;94807.41;5044215;28;20049;-46
2022/01/31 01:59:46;;;;;;;17.25;4.20;;;;;;;0.52;97.02;94805.50;5045578;28;20998;-47
2022/01/31 02:02:36;;;;;;;6.28;2.78;;;;;;;0.51;97.03;94803.91;5043611;28;20056;-47
2022/01/31 02:05:05;;;;;;;8.35;3.75;;;;;;;0.52;96.54;94800.38;5045196;28;20048;-48
2022/01/31 02:07:39;;;;;;;8.35;2.45;;;;;;;0.56;95.88;94811.88;5043612;28;20045;-47
2022/01/31 02:10:10;;;;;;;5.38;3.25;;;;;;;0.57;93.89;94798.09;5044038;28;20059;-48
2022/01/31 02:12:53;;;;;;;4.57;3.17;;;;;;;0.67;92.83;94807.34;5047065;28;20040;-47
2022/01/31 02:15:51;;;;;;;12.02;1.92;;;;;;;0.67;92.11;94808.13;5009712;28;20128;-48
2022/01/31 02:18:48;;;;;;;13.27;1.90;;;;;;;0.70;91.11;94807.81;5036088;28;20072;-49
2022/01/31 02:21:33;;;;;;;5.78;1.75;;;;;;;0.69;86.70;94810.53;5045976;28;20811;-47
2022/01/31 02:24:20;;;;;;;7.07;1.42;;;;;;;0.75;83.74;94809.84;5049518;28;20040;-47
2022/01/31 02:27:03;;;;;;;2.65;1.48;;;;;;;0.70;82.33;94804.44;5048483;28;20780;-46
2022/01/31 02:29:31;;;;;;;6.88;1.15;;;;;;;0.77;81.57;94807.91;5047151;28;20056;-47
2022/01/31 02:31:58;;;;;;;8.93;1.80;;;;;;;0.78;80.87;94801.81;5043971;28;20419;-47
2022/01/31 02:34:25;;;;;;;2.72;1.30;;;;;;;0.72;80.26;94802.47;5044102;28;20132;-48
2022/01/31 02:36:52;;;;;;;9.43;2.10;;;;;;;0.75;79.90;94804.72;5058475;28;20080;-47
2022/01/31 02:39:19;;;;;;;28.58;2.00;;;;;;;0.74;80.08;94808.25;5044433;28;20124;-47
2022/01/31 02:41:48;;;;;;;1.95;0.55;;;;;;;0.68;79.61;94814.06;5051201;28;20052;-47
2022/01/31 02:44:16;;;;;;;2.78;1.27;;;;;;;0.72;78.83;94805.03;5046541;28;20068;-50
2022/01/31 02:47:10;;;;;;;2.35;0.88;;;;;;;0.68;78.71;94806.38;5061507;28;20163;-48
2022/01/31 02:49:47;;;;;;;2.92;1.83;;;;;;;0.70;78.38;94814.69;5042518;28;20106;-49
2022/01/31 02:52:15;;;;;;;2.95;2.10;;;;;;;0.53;78.63;94796.84;5063326;28;20049;-49
2022/01/31 02:54:43;;;;;;;0.68;0.65;;;;;;;0.67;78.05;94797.09;5043196;28;20091;-48
2022/01/31 02:57:10;;;;;;;4.55;1.05;;;;;;;0.76;78.52;94822.50;5046108;28;20044;-51
2022/01/31 02:59:37;;;;;;;5.07;2.38;;;;;;;0.66;78.71;94816.00;5044973;28;20052;-47
2022/01/31 03:02:06;;;;;;;4.63;1.33;;;;;;;0.68;78.33;94825.09;5048025;28;20118;-48
2022/01/31 03:04:33;;;;;;;7.93;3.00;;;;;;;0.71;78.33;94829.91;5044817;28;20511;-49
2022/01/31 03:07:06;;;;;;;2.05;1.17;;;;;;;0.73;78.19;94816.91;5045746;28;20146;-48
2022/01/31 03:09:33;;;;;;;1.23;0.90;;;;;;;0.72;78.31;94830.69;5043548;28;20049;-48
2022/01/31 03:12:03;;;;;;;3.10;1.48;;;;;;;0.69;79.28;94820.78;5044011;28;20072;-48
2022/01/31 03:14:38;;;;;;;3.30;1.80;;;;;;;0.65;79.24;94829.75;5050168;28;20048;-48
2022/01/31 03:17:11;;;;;;;;;;;;;;;0.64;79.62;94828.97;5045695;28;20048;-49
2022/01/31 03:19:40;;;;;;;4.00;1.60;;;;;;;0.62;79.52;94823.22;5044624;28;19974;-47
2022/01/31 03:22:07;;;;;;;7.10;1.38;;;;;;;0.64;78.48;94833.31;5043502;28;20065;-47
2022/01/31 03:24:35;;;;;;;11.00;2.10;;;;;;;0.68;78.96;94829.44;5046680;28;20037;-46
2022/01/31 03:27:02;;;;;;;13.07;5.03;;;;;;;0.63;79.57;94816.31;5059463;28;20051;-49
2022/01/31 03:29:29;;;;;;;0.82;0.68;;;;;;;0.70;78.37;94833.44;5046643;28;20037;-49
2022/01/31 03:31:56;;;;;;;2.83;1.65;;;;;;;0.66;78.66;94827.03;5045876;28;20050;-47
2022/01/31 03:34:25;;;;;;;1.02;0.90;;;;;;;0.68;78.34;94814.06;5046749;28;20032;-50
2022/01/31 03:36:52;;;;;;;1.38;0.85;;;;;;;0.62;78.80;94810.41;5048659;28;20304;-50
2022/01/31 03:39:23;;;;;;;2.20;1.02;;;;;;;0.61;79.54;94838.78;5049261;28;20052;-47
2022/01/31 03:41:49;;;;;;;2.25;1.10;;;;;;;0.53;79.82;94817.34;5043215;28;20072;-48
2022/01/31 03:44:16;;;;;;;0.85;0.73;;;;;;;0.51;79.71;94823.63;5053097;28;20065;-47
2022/01/31 03:46:45;;;;;;;2.05;0.95;;;;;;;0.40;80.21;94811.97;5046178;28;20048;-48
2022/01/31 03:49:17;;;;;;;3.88;0.93;;;;;;;0.42;79.65;94815.16;5052134;28;22038;-48
2022/01/31 03:51:46;;;;;;;0.95;0.73;;;;;;;0.43;79.64;94811.63;5047803;28;20115;-46
2022/01/31 03:54:19;;;;;;;5.40;1.30;;;;;;;0.41;78.96;94813.56;5047636;28;20037;-47
2022/01/31 03:56:46;;;;;;;2.72;1.45;;;;;;;0.36;79.38;94826.88;5044232;28;20041;-48
2022/01/31 03:59:39;;;;;;;6.75;1.88;;;;;;;0.29;79.08;94807.22;5035191;28;20493;-49
2022/01/31 04:02:07;;;;;;;1.73;1.17;;;;;;;0.25;79.20;94818.75;5065739;28;20053;-51
2022/01/31 04:04:34;;;;;;;4.18;1.10;;;;;;;0.26;79.46;94815.25;5046853;28;20053;-47
2022/01/31 04:07:02;;;;;;;14.95;5.10;;;;;;;0.25;79.49;94811.88;5048798;28;20098;-47
2022/01/31 04:09:29;;;;;;;1.42;0.63;;;;;;;0.21;79.94;94822.63;5048134;28;20053;-48
2022/01/31 04:11:55;;;;;;;2.15;1.42;;;;;;;0.18;79.81;94819.44;5046832;28;20514;-47
2022/01/31 04:14:26;;;;;;;1.40;0.80;;;;;;;0.16;80.09;94821.38;5047732;28;20056;-47
2022/01/31 04:16:55;;;;;;;2.50;0.70;;;;;;;0.20;79.22;94826.97;5047993;28;20040;-49
2022/01/31 04:19:23;;;;;;;2.85;1.25;;;;;;;0.22;79.89;94826.78;5049582;28;20087;-47
2022/01/31 04:21:50;;;;;;;9.07;1.23;;;;;;;0.19;79.75;94826.16;5050538;28;20049;-51
2022/01/31 04:24:23;;;;;;;3.28;1.23;;;;;;;0.13;79.96;94819.13;5050508;28;20051;-50
2022/01/31 04:26:59;;;;;;;4.13;1.17;;;;;;;0.19;79.62;94841.50;5055002;28;20044;-49
2022/01/31 04:29:31;;;;;;;8.02;1.40;;;;;;;0.20;80.18;94837.22;5047578;28;20404;-50
2022/01/31 04:31:58;;;;;;;7.28;2.85;;;;;;;0.21;81.27;94838.00;5049750;28;20565;-46
2022/01/31 04:34:26;;;;;;;11.75;4.55;;;;;;;0.18;81.68;94845.06;5046379;28;20091;-51
2022/01/31 04:36:52;;;;;;;16.02;1.70;;;;;;;0.11;81.33;94838.19;5052817;28;20061;-49
2022/01/31 04:39:19;;;;;;;3.95;1.25;;;;;;;0.09;79.98;94823.00;5050294;28;20699;-48
2022/01/31 04:41:49;;;;;;;0.80;0.70;;;;;;;0.28;79.05;94833.81;5047357;28;20418;-47
2022/01/31 04:44:16;;;;;;;2.05;1.00;;;;;;;0.26;80.01;94830.63;5046337;28;20044;-49
2022/01/31 04:46:48;;;;;;;0.73;0.63;;;;;;;0.19;79.44;94830.47;5046014;28;20497;-48
2022/01/31 04:49:16;;;;;;;3.72;1.13;;;;;;;0.17;79.47;94822.97;5047043;28;20132;-47
2022/01/31 04:51:43;;;;;;;2.33;0.93;;;;;;;0.12;79.38;94820.09;5047573;28;20441;-47
2022/01/31 04:54:10;;;;;;;1.42;1.20;;;;;;;0.10;79.51;94816.91;5047414;28;20526;-50
2022/01/31 04:56:39;;;;;;;1.42;0.55;;;;;;;0.08;79.82;94806.03;5046937;28;20080;-51
2022/01/31 04:59:05;;;;;;;2.50;1.17;;;;;;;0.02;80.45;94819.50;5047070;28;20127;-47
2022/01/31 05:01:33;;;;;;;2.90;1.40;;;;;;;-0.06;80.90;94828.00;5052949;28;20055;-50
2022/01/31 05:04:00;;;;;;;1.15;0.77;;;;;;;-0.09;81.62;94807.03;5050459;28;20502;-49
2022/01/31 05:06:35;;;;;;;2.95;1.48;;;;;;;-0.15;82.15;94818.75;5047873;28;20048;-48
2022/01/31 05:09:02;;;;;;;4.55;1.48;;;;;;;-0.18;82.42;94813.97;5048499;28;20052;-52
2022/01/31 05:11:29;;;;;;;0.80;0.43;;;;;;;-0.27;83.55;94815.75;5047110;28;20048;-48
2022/01/31 05:13:56;;;;;;;1.98;0.90;;;;;;;-0.35;84.24;94820.09;5046954;28;20184;-47
2022/01/31 05:16:23;;;;;;;3.95;2.10;;;;;;;-0.43;84.94;94810.69;5045382;28;20079;-48
2022/01/31 05:18:50;;;;;;;1.52;1.25;;;;;;;-0.51;85.84;94818.34;5046478;28;20060;-48
2022/01/31 05:21:16;;;;;;;2.33;1.15;;;;;;;-0.54;85.85;94813.56;5050768;28;20049;-49
2022/01/31 05:23:44;;;;;;;2.83;1.65;;;;;;;-0.55;85.89;94827.31;5046235;28;20080;-49
2022/01/31 05:26:11;;;;;;;7.22;1.83;;;;;;;-0.57;86.09;94829.25;5050123;28;20117;-48
2022/01/31 05:28:38;;;;;;;3.05;1.60;;;;;;;-0.59;86.24;94827.63;5048448;28;20048;-47
2022/01/31 05:31:06;;;;;;;7.43;3.67;;;;;;;-0.60;86.52;94820.13;5046429;28;20071;-48
2022/01/31 05:33:33;;;;;;;11.55;2.95;;;;;;;-0.52;86.09;94832.09;5046138;28;20052;-51
2022/01/31 05:36:00;;;;;;;4.95;2.70;;;;;;;-0.48;86.05;94820.59;5046799;28;20511;-48
2022/01/31 05:38:27;;;;;;;9.50;2.88;;;;;;;-0.52;86.41;94817.56;5051439;28;20056;-50
2022/01/31 05:40:54;;;;;;;3.90;2.45;;;;;;;-0.51;86.55;94828.59;5047643;28;20049;-47
2022/01/31 05:43:20;;;;;;;6.65;3.05;;;;;;;-0.55;86.83;94817.09;5046988;28;20129;-52
2022/01/31 05:45:47;;;;;;;14.73;2.78;;;;;;;-0.64;87.60;94824.75;5045962;28;20128;-52
2022/01/31 05:48:18;;;;;;;5.93;1.80;;;;;;;-0.67;88.00;94819.16;5044924;28;20048;-48
2022/01/31 05:50:45;;;;;;;4.30;2.10;;;;;;;-0.74;88.64;94823.34;5045797;28;20068;-48
2022/01/31 05:53:13;;;;;;;3.67;2.22;;;;;;;-0.80;89.07;94829.91;5050159;28;20366;-51
2022/01/31 05:55:40;;;;;;;5.80;2.65;;;;;;;-0.89;89.83;94833.41;5048706;28;20503;-50
2022/01/31 05:58:09;;;;;;;11.48;3.25;;;;;;;-0.86;89.78;94833.09;5053049;28;20076;-47
2022/01/31 06:00:37;;;;;;;3.95;3.03;;;;;;;-0.94;89.71;94827.97;5049486;28;20045;-49
2022/01/31 06:03:04;;;;;;;2.85;1.75;;;;;;;-0.89;90.09;94834.19;5045865;28;20072;-50
2022/01/31 06:05:31;;;;;;;8.63;2.65;;;;;;;-0.93;89.83;94824.47;5045312;28;20184;-50
2022/01/31 06:07:58;;;;;;;3.85;1.90;;;;;;;-0.81;89.35;94835.94;5045225;28;20047;-48
2022/01/31 06:10:25;;;;;;;3.58;1.95;;;;;;;-0.78;89.09;94835.66;5045058;28;20040;-49
2022/01/31 06:12:53;;;;;;;11.20;2.63;;;;;;;-0.78;88.61;94838.19;5045062;28;20469;-52
2022/01/31 06:15:20;;;;;;;3.30;1.77;;;;;;;-0.70;88.11;94829.72;5045400;28;20036;-49
2022/01/31 06:17:46;;;;;;;7.03;3.03;;;;;;;-0.66;87.91;94825.91;5049462;28;20049;-49
2022/01/31 06:20:13;;;;;;;6.35;2.25;;;;;;;-0.66;87.79;94836.91;5045133;28;20048;-47
2022/01/31 06:22:48;;;;;;;2.33;1.42;;;;;;;-0.63;87.56;94840.91;5044763;28;20041;-48
2022/01/31 06:25:15;;;;;;;3.80;1.70;;;;;;;-0.59;87.61;94834.53;5045909;28;20045;-49
2022/01/31 06:27:45;;;;;;;7.75;2.78;;;;;;;-0.55;87.62;94833.22;5057494;28;20135;-50
2022/01/31 06:30:13;;;;;;;2.50;1.90;;;;;;;-0.52;87.68;94826.97;5045310;28;20120;-48
2022/01/31 06:32:45;;;;;;;4.95;2.58;;;;;;;-0.52;87.40;94826.97;5043853;28;20561;-47
2022/01/31 06:35:13;;;;;;;5.40;3.33;;;;;;;-0.46;87.24;94827.13;5049909;28;20044;-47
2022/01/31 06:37:40;;;;;;;10.90;4.75;;;;;;;-0.54;87.39;94816.94;5051278;28;20498;-50
2022/01/31 06:40:07;;;;;;;15.23;5.28;;;;;;;-0.49;87.72;94824.09;5039473;28;20056;-48
2022/01/31 06:42:34;;;;;;;13.73;4.13;;;;;;;-0.48;87.97;94823.16;5043622;28;20041;-50
2022/01/31 06:45:01;;;;;;;6.60;3.38;;;;;;;-0.51;88.40;94821.72;5042328;28;20049;-48
2022/01/31 06:47:28;;;;;;;28.58;8.88;;;;;;;-0.47;88.72;94824.75;5042595;28;20143;-47
2022/01/31 06:49:55;;;;;;;12.63;4.43;;;;;;;-0.47;88.21;94824.75;5044823;28;20053;-50
2022/01/31 06:52:23;;;;;;;5.57;2.85;;;;;;;-0.37;88.41;94825.38;5046505;28;20040;-48
2022/01/31 06:54:52;;;;;;;7.47;4.30;;;;;;;-0.31;88.43;94814.47;5045253;28;20052;-50
2022/01/31 06:57:21;;;;;;;10.80;4.35;;;;;;;-0.24;87.77;94809.50;5046059;28;20041;-49
2022/01/31 06:59:49;;;;;;;6.93;2.25;;;;;;;-0.21;87.60;94815.09;5045881;28;20406;-48
2022/01/31 07:02:15;;;;;;;4.72;2.83;;;;;;;-0.12;87.22;94817.63;5045944;28;20036;-48
2022/01/31 07:04:42;;;;;;;15.15;3.63;;;;;;;-0.04;86.52;94809.91;5046970;28;20045;-47
2022/01/31 07:07:09;;;;;;;8.52;3.75;;;;;;;0.02;86.51;94806.72;5047171;28;20044;-48
2022/01/31 07:09:36;;;;;;;11.00;3.08;;;;;;;0.12;85.95;94814.19;5044663;28;20453;-49
2022/01/31 07:12:06;;;;;;;13.10;4.88;;;;;;;0.24;85.60;94817.19;5044665;28;20624;-47
2022/01/31 07:14:33;;;;;;;10.65;4.93;;;;;;;0.30;85.08;94811.38;5045739;28;20053;-49
2022/01/31 07:17:02;;;;;;;8.65;4.43;;;;;;;0.41;84.83;94807.66;5044660;28;20052;-51
2022/01/31 07:19:33;;;;;;;14.27;4.88;;;;;;;0.53;84.13;94806.31;5042343;28;20049;-48
2022/01/31 07:22:00;;;;;;;14.60;6.80;;;;;;;0.58;83.48;94801.47;5044452;28;20083;-48
2022/01/31 07:27:04;;;;;;;15.32;6.55;;;;;;;0.75;82.79;94802.16;5046425;28;20045;-48
2022/01/31 07:29:31;;;;;;;9.30;4.47;;;;;;;0.80;82.16;94799.09;5044101;28;20526;-48
2022/01/31 07:31:59;;;;;;;1.60;1.15;;;;;;;0.93;76.75;94794.19;5045867;28;20041;-47
2022/01/31 07:34:26;;;;;;;15.90;3.72;;;;;;;1.07;75.59;94784.94;5043692;28;20399;-47
2022/01/31 07:36:54;;;;;;;4.90;1.55;;;;;;;1.19;74.70;94796.38;5049524;28;20055;-48
2022/01/31 07:39:21;;;;;;;3.38;1.98;;;;;;;1.30;73.50;94798.53;5051324;28;20045;-46
2022/01/31 07:41:48;;;;;;;4.82;0.80;;;;;;;1.32;72.13;94785.53;5049044;28;20048;-48
2022/01/31 07:44:16;;;;;;;2.60;1.38;;;;;;;1.36;72.17;94791.09;5048000;28;20041;-49
2022/01/31 07:46:43;;;;;;;7.18;2.13;;;;;;;1.33;71.21;94782.78;5049964;28;20398;-48
2022/01/31 07:49:10;;;;;;;3.17;1.27;;;;;;;1.44;70.82;94788.44;5050354;28;20060;-49
2022/01/31 07:51:41;;;;;;;8.18;1.08;;;;;;;1.47;71.29;94782.97;5048687;28;20029;-48
2022/01/31 07:54:08;;;;;;;7.75;2.03;;;;;;;1.57;69.87;94798.94;5049186;28;20498;-47
2022/01/31 07:56:35;;;;;;;8.35;1.83;;;;;;;1.60;69.34;94780.59;5049357;28;20044;-47
2022/01/31 07:59:02;;;;;;;5.97;1.95;;;;;;;1.58;68.31;94792.81;5047844;28;20179;-47
2022/01/31 08:01:29;;;;;;;6.47;1.52;;;;;;;1.47;67.85;94778.63;5049316;28;20033;-51
2022/01/31 08:03:56;;;;;;;4.35;1.38;;;;;;;1.54;68.18;94789.00;5048835;28;20102;-48
2022/01/31 08:06:23;;;;;;;2.05;1.05;;;;;;;1.53;67.10;94793.34;5047730;28;20495;-51
2022/01/31 08:08:50;;;;;;;3.10;1.90;;;;;;;1.56;67.24;94794.75;5046069;28;20522;-50
2022/01/31 08:11:18;;;;;;;0.95;0.70;;;;;;;1.64;67.78;94796.44;5048129;28;20471;-47
2022/01/31 08:13:45;;;;;;;5.72;2.45;;;;;;;1.72;68.01;94786.88;5048291;28;20530;-48
2022/01/31 08:16:13;;;;;;;5.32;2.13;;;;;;;1.90;68.19;94788.31;5047125;28;20052;-48
2022/01/31 08:18:42;;;;;;;2.15;1.70;;;;;;;1.96;67.04;94785.00;5049363;28;20044;-49
2022/01/31 08:21:13;;;;;;;2.17;1.52;;;;;;;1.91;65.97;94795.06;5050794;28;20419;-51
2022/01/31 08:23:41;;;;;;;10.68;3.40;;;;;;;1.98;67.27;94772.81;5048568;28;20430;-47
2022/01/31 08:26:12;;;;;;;3.38;1.90;;;;;;;1.99;67.04;94776.97;5050911;28;20040;-46
2022/01/31 08:28:43;;;;;;;4.00;2.33;;;;;;;1.87;64.70;94773.25;5049114;28;20033;-48
2022/01/31 08:36:26;;;;;;;11.18;4.13;;;;;;;2.07;67.14;94761.47;5049736;28;20464;-47
2022/01/31 08:38:54;;;;;;;14.48;4.32;;;;;;;2.07;66.65;94774.31;5048354;28;20537;-47
2022/01/31 08:41:23;;;;;;;4.65;2.45;;;;;;;2.25;66.69;94770.53;5046764;28;20536;-47
2022/01/31 08:43:50;;;;;;;2.83;1.23;;;;;;;2.22;65.65;94770.91;5046318;28;20521;-47
2022/01/31 08:46:18;;;;;;;18.35;3.20;;;;;;;2.27;67.24;94763.47;5045342;28;20037;-51
2022/01/31 08:48:45;;;;;;;14.20;2.92;;;;;;;2.42;66.53;94763.44;5047320;28;20037;-47
2022/01/31 08:51:12;;;;;;;9.23;2.10;;;;;;;2.47;66.23;94759.31;5050500;28;20045;-46
2022/01/31 08:53:39;;;;;;;6.85;3.20;;;;;;;2.53;66.68;94764.72;5047317;28;20045;-47
2022/01/31 08:56:12;;;;;;;4.55;1.83;;;;;;;2.52;65.27;94781.13;5046335;28;20128;-47
2022/01/31 08:58:48;;;;;;;4.30;1.33;;;;;;;2.47;62.63;94768.81;5046026;28;20041;-49
2022/01/31 09:01:19;;;;;;;2.53;1.75;;;;;;;2.54;63.37;94758.59;5046290;28;20055;-48
2022/01/31 09:06:23;;;;;;;7.40;4.43;;;;;;;2.52;61.55;94765.69;5048051;28;20037;-46
2022/01/31 09:08:50;;;;;;;4.60;3.17;;;;;;;2.59;60.78;94751.13;5047124;28;21373;-47
2022/01/31 09:11:18;;;;;;;4.32;2.25;;;;;;;2.61;60.64;94754.31;5048754;28;20040;-47
2022/01/31 09:13:45;;;;;;;4.43;1.60;;;;;;;2.61;63.00;94749.16;5046900;28;20483;-46
2022/01/31 09:16:12;;;;;;;5.70;2.55;;;;;;;2.84;63.15;94747.19;5047006;28;20434;-49
2022/01/31 09:18:40;;;;;;;2.80;1.05;;;;;;;2.91;60.55;94751.63;5048575;28;20068;-48
2022/01/31 09:21:07;;;;;;;3.33;1.20;;;;;;;3.09;61.36;94725.44;5046903;28;20762;-47
2022/01/31 09:23:34;;;;;;;3.72;1.20;;;;;;;3.11;58.57;94726.84;5048548;28;20473;-48
2022/01/31 09:26:01;;;;;;;5.03;1.17;;;;;;;3.02;56.67;94720.25;5047053;28;20033;-48
2022/01/31 09:28:28;;;;;;;1.20;0.70;;;;;;;3.20;56.88;94707.69;5046648;28;20128;-48
2022/01/31 09:30:55;;;;;;;5.78;1.70;;;;;;;3.14;57.09;94718.75;5046047;28;20040;-47
2022/01/31 09:33:25;;;;;;;1.73;1.15;;;;;;;3.05;55.78;94709.59;5045150;28;20037;-47
2022/01/31 09:35:52;;;;;;;6.97;3.45;;;;;;;3.11;56.97;94719.13;5047293;28;20048;-49
2022/01/31 09:38:23;;;;;;;3.33;1.35;;;;;;;3.27;57.15;94706.97;5047476;28;20525;-46
2022/01/31 09:40:53;;;;;;;5.78;1.52;;;;;;;3.42;57.54;94702.50;5045847;28;20045;-47
2022/01/31 09:48:33;;;;;;;2.72;1.50;;;;;;;3.61;56.50;94685.56;5045713;28;20052;-47
2022/01/31 09:51:08;;;;;;;6.30;1.98;;;;;;;3.64;55.65;94683.41;5045703;28;20434;-47
2022/01/31 09:53:51;;;;;;;3.65;1.05;;;;;;;3.54;55.30;94675.22;5045335;28;20558;-46
2022/01/31 09:56:22;;;;;;;2.58;1.58;;;;;;;3.57;56.66;94671.50;5044501;28;20128;-47
2022/01/31 09:58:51;;;;;;;3.15;1.52;;;;;;;3.56;54.25;94670.66;5043294;28;20531;-47
2022/01/31 10:01:25;;;;;;;3.75;1.35;;;;;;;3.59;56.40;94664.38;5053123;28;20102;-46
2022/01/31 10:04:02;;;;;;;22.48;4.78;;;;;;;3.53;54.88;94660.78;5049471;28;20037;-46
2022/01/31 10:06:32;;;;;;;6.03;2.65;;;;;;;3.72;56.92;94668.78;5047491;28;20502;-46
2022/01/31 10:09:06;;;;;;;7.15;2.15;;;;;;;3.80;55.22;94660.91;5043083;28;20045;-49
2022/01/31 10:11:41;;;;;;;7.07;2.33;;;;;;;3.59;55.45;94644.53;5042914;28;20045;-46
2022/01/31 10:17:02;;;;;;;3.17;1.65;;;;;;;3.53;56.17;94640.16;5043862;28;20041;-46
2022/01/31 10:19:48;;;;;;;4.40;1.83;;;;;;;3.58;56.29;94622.38;5045420;28;20395;-50
2022/01/31 10:22:17;;;;;;;7.85;2.38;;;;;;;3.77;56.18;94614.91;5043915;28;20082;-47
2022/01/31 10:24:48;;;;;;;6.90;2.22;;;;;;;3.57;54.88;94600.16;5046392;28;20045;-46
2022/01/31 10:27:18;;;;;;;9.25;4.07;;;;;;;3.36;56.65;94598.50;5044907;28;20471;-48
2022/01/31 10:29:47;;;;;;;5.80;1.48;;;;;;;3.13;56.24;94606.50;5043975;28;20057;-50
2022/01/31 10:32:26;;;;;;;12.80;2.90;;;;;;;3.11;57.23;94590.44;5046174;28;20056;-47
2022/01/31 10:34:56;;;;;;;6.50;2.28;;;;;;;3.40;57.43;94593.75;5044789;28;20502;-48
2022/01/31 10:37:25;;;;;;;4.97;2.58;;;;;;;3.56;55.71;94590.84;5049733;28;20040;-46
2022/01/31 10:57:19;;;;;;;5.95;2.80;;;;;;;4.23;52.86;94521.38;5046072;28;20037;-48
2022/01/31 10:59:47;;;;;;;7.10;1.55;;;;;;;4.30;54.14;94500.78;5044579;28;20044;-46
2022/01/31 11:02:20;;;;;;;3.78;1.35;;;;;;;4.20;53.33;94514.06;5047925;28;20063;-49
2022/01/31 11:04:49;;;;;;;2.78;1.20;;;;;;;4.20;53.35;94511.50;5050574;28;20064;-48
2022/01/31 11:07:19;;;;;;;14.55;3.92;;;;;;;4.46;54.64;94499.56;5043995;28;20048;-48
2022/01/31 11:09:49;;;;;;;7.05;1.27;;;;;;;4.49;53.61;94506.91;5046328;28;20080;-50
2022/01/31 11:12:16;;;;;;;4.40;1.92;;;;;;;4.60;54.17;94498.56;5047806;28;20052;-47
2022/01/31 11:14:46;;;;;;;8.85;1.65;;;;;;;4.61;51.51;94502.72;5056454;28;20082;-46
2022/01/31 11:17:15;;;;;;;4.18;2.30;;;;;;;4.67;52.73;94486.44;5050610;28;20091;-47
2022/01/31 11:19:49;;;;;;;6.15;2.42;;;;;;;4.70;52.10;94501.50;5048450;28;20052;-46
2022/01/31 11:22:26;;;;;;;7.13;2.72;;;;;;;4.57;51.96;94494.59;5048511;28;20052;-46
2022/01/31 11:25:14;;;;;;;4.70;1.80;;;;;;;4.63;52.25;94505.91;5047849;28;20045;-47
2022/01/31 11:27:54;;;;;;;5.45;1.10;;;;;;;4.54;52.05;94499.38;5047685;28;20067;-46
2022/01/31 11:30:22;;;;;;;4.88;1.92;;;;;;;4.60;52.13;94490.81;5048762;28;20045;-46
2022/01/31 11:32:49;;;;;;;4.72;2.13;;;;;;;4.75;51.56;94488.81;5050248;28;21783;-46
2022/01/31 11:35:16;;;;;;;9.80;2.92;;;;;;;4.78;51.65;94461.78;5046806;28;20075;-48
2022/01/31 11:37:43;;;;;;;4.50;2.13;;;;;;;4.97;50.53;94455.00;5049395;28;20056;-48
2022/01/31 11:40:13;;;;;;;6.10;1.73;;;;;;;4.96;50.16;94453.41;5048654;28;20048;-48
2022/01/31 11:42:46;;;;;;;12.00;3.88;;;;;;;4.84;48.38;94444.69;5047489;28;20049;-47
2022/01/31 11:45:25;;;;;;;5.88;2.33;;;;;;;4.99;51.17;94458.16;5055039;28;20483;-50
2022/01/31 11:47:53;;;;;;;7.47;1.60;;;;;;;5.28;50.17;94440.53;5046008;28;20098;-47
2022/01/31 11:50:22;;;;;;;11.50;2.15;;;;;;;5.30;50.16;94443.72;5046986;28;20068;-48
2022/01/31 11:52:58;;;;;;;8.00;2.05;;;;;;;5.52;50.13;94442.38;5046159;28;20047;-47
2022/01/31 11:55:33;;;;;;;9.15;3.00;;;;;;;5.69;47.49;94426.34;5045701;28;20541;-46
2022/01/31 11:58:00;;;;;;;6.55;2.17;;;;;;;5.73;47.68;94418.00;5046332;28;20060;-48
2022/01/31 12:00:28;;;;;;;4.57;1.73;;;;;;;5.65;48.14;94430.38;5047314;28;20510;-47
2022/01/31 12:03:02;;;;;;;3.70;1.60;;;;;;;5.62;47.00;94421.25;5042142;28;20045;-47
2022/01/31 12:05:33;;;;;;;7.63;2.10;;;;;;;5.66;46.44;94429.38;5048082;28;20036;-51
2022/01/31 12:08:02;;;;;;;8.30;2.85;;;;;;;5.82;46.83;94410.78;5047330;28;20049;-48
2022/01/31 12:10:37;;;;;;;2.42;1.17;;;;;;;6.00;46.63;94401.50;5046013;28;20549;-49
2022/01/31 12:13:48;;;;;;;5.00;1.63;;;;;;;6.04;45.17;94389.75;5045020;28;20477;-48
2022/01/31 12:16:40;;;;;;;4.80;1.42;;;;;;;5.84;44.80;94395.06;5046865;28;20426;-47
2022/01/31 12:22:28;;;;;;;9.48;1.30;;;;;;;5.89;44.68;94393.41;5046177;28;20568;-48
2022/01/31 12:24:55;;;;;;;3.92;1.25;;;;;;;5.88;44.82;94371.13;5049765;28;20490;-47
2022/01/31 12:27:28;;;;;;;3.65;1.38;;;;;;;6.22;44.58;94384.59;5054889;28;20071;-49
2022/01/31 12:29:58;;;;;;;1.43;0.87;;;;;;;6.28;43.26;94380.34;5046486;28;20053;-48